Observations for Trim Market St
| Time | AQI | Temp °C | Hum % | Pres Pa | CO μg/m³ | H₂S μg/m³ | NO μg/m³ | NO₂ μg/m³ | O₃ μg/m³ | SO₂ μg/m³ | PM1 μg/m³ | PM2.5 μg/m³ | PM10 μg/m³ |
|---|---|---|---|---|---|---|---|---|---|---|---|---|---|
| Monday 13 July 2026 | |||||||||||||
| 15:12 | 1 | 33.9 | 27 | 66,339 | 0 | 0 | 0 | 0 | 37.7 | 0 | 0.71 | 5.06 | 5.57 |
| 15:08 | 1 | 34 | 27 | 66,357 | 0 | 0 | 0 | 0 | 37.8 | 0 | 2.14 | 5.62 | 5.76 |
| 15:07 | 1 | 34 | 27 | 66,351 | 0 | 0 | 0 | 0 | 25.29 | 0 | 0.71 | 4.52 | 4.97 |
| 15:04 | 1 | 34.1 | 28 | 66,327 | 0 | 0 | 0 | 0 | 38.99 | 0 | 0.71 | 3.93 | 4.03 |
| 15:00 | 1 | 34.1 | 28 | 66,355 | 0 | 0 | 0 | 0 | 34.1 | 0 | 0.71 | 4.48 | 4.9 |
| 14:52 | 1 | 34.2 | 29 | 66,355 | 0 | 0 | 0 | 0 | 35.2 | 0 | 0.71 | 4.46 | 4.9 |
| 14:51 | 1 | 34.4 | 29 | 66,380 | 0 | 0 | 0 | 0 | 28.34 | 0 | 0.71 | 4.46 | 4.91 |
| 14:50 | 1 | 34.5 | 29 | 66,380 | 0 | 0 | 0 | 0 | 7.91 | 0 | 1.43 | 4.46 | 4.91 |
| 14:49 | 1 | 34.6 | 29 | 66,382 | 0 | 0 | 0 | 0 | 29.98 | 0 | 2.14 | 6.09 | 6.7 |
| 14:47 | 1 | 34.7 | 29 | 66,406 | 0 | 0 | 0 | 0 | 37.96 | 0 | 2.14 | 5.01 | 5.51 |
| 14:46 | 1 | 34.7 | 28 | 66,408 | 0 | 0 | 0 | 0 | 33.03 | 0 | 0.71 | 4.47 | 4.92 |
| 14:45 | 1 | 34.8 | 28 | 66,406 | 0 | 0 | 0 | 0 | 26.41 | 0 | 1.43 | 4.47 | 4.92 |
| 14:44 | 1 | 34.8 | 28 | 66,404 | 0 | 0 | 0 | 0 | 28.08 | 0 | 1.43 | 5.01 | 5.52 |
| 14:43 | 1 | 34.9 | 28 | 66,402 | 0 | 0 | 0 | 0 | 33.5 | 0 | 1.43 | 5.01 | 5.51 |
| 14:42 | 1 | 34.9 | 28 | 66,398 | 0 | 0 | 0 | 0 | 19.32 | 0 | 1.43 | 5.01 | 5.52 |
| 14:41 | 1 | 34.9 | 28 | 66,398 | 0 | 0 | 0 | 0 | 30.93 | 0 | 1.43 | 4.46 | 5.78 |
| 14:40 | 1 | 34.8 | 29 | 66,398 | 0 | 0 | 0 | 0 | 22.37 | 0 | 1.43 | 4.46 | 5.78 |
| 14:39 | 1 | 34.8 | 29 | 66,398 | 0 | 0 | 0 | 0 | 21.27 | 0 | 3.56 | 6.07 | 6.68 |
| 14:37 | 1 | 34.7 | 29 | 66,396 | 0 | 0 | 0 | 0 | 29.32 | 0 | 1.43 | 4.43 | 4.92 |
| 14:36 | 1 | 34.7 | 29 | 66,394 | 0 | 0 | 0 | 0 | 24.93 | 0 | 1.43 | 4.97 | 5.47 |